sensor_id;sensor_type;location;lat;lon;timestamp;P1;durP1;ratioP1;P2;durP2;ratioP2
17151;SDS011;8691;50.828;4.700;2022-09-01T00:01:52;4.73;;;2.90;;
17151;SDS011;8691;50.828;4.700;2022-09-01T00:04:19;4.83;;;3.17;;
17151;SDS011;8691;50.828;4.700;2022-09-01T00:06:45;4.23;;;2.80;;
17151;SDS011;8691;50.828;4.700;2022-09-01T00:09:13;4.00;;;2.80;;
17151;SDS011;8691;50.828;4.700;2022-09-01T00:11:40;4.83;;;2.50;;
17151;SDS011;8691;50.828;4.700;2022-09-01T00:14:06;3.70;;;2.90;;
17151;SDS011;8691;50.828;4.700;2022-09-01T00:16:33;4.80;;;2.40;;
17151;SDS011;8691;50.828;4.700;2022-09-01T00:19:00;5.53;;;2.73;;
17151;SDS011;8691;50.828;4.700;2022-09-01T00:21:29;3.70;;;2.63;;
17151;SDS011;8691;50.828;4.700;2022-09-01T00:23:54;4.40;;;2.20;;
17151;SDS011;8691;50.828;4.700;2022-09-01T00:26:21;6.47;;;2.60;;
17151;SDS011;8691;50.828;4.700;2022-09-01T00:28:48;5.63;;;2.80;;
17151;SDS011;8691;50.828;4.700;2022-09-01T00:31:16;6.10;;;2.60;;
17151;SDS011;8691;50.828;4.700;2022-09-01T00:33:42;4.47;;;2.73;;
17151;SDS011;8691;50.828;4.700;2022-09-01T00:36:09;3.97;;;2.50;;
17151;SDS011;8691;50.828;4.700;2022-09-01T00:38:36;4.83;;;2.33;;
17151;SDS011;8691;50.828;4.700;2022-09-01T00:41:04;5.43;;;2.93;;
17151;SDS011;8691;50.828;4.700;2022-09-01T00:46:13;4.07;;;2.67;;
17151;SDS011;8691;50.828;4.700;2022-09-01T00:48:38;5.30;;;2.87;;
17151;SDS011;8691;50.828;4.700;2022-09-01T00:51:06;4.00;;;2.67;;
17151;SDS011;8691;50.828;4.700;2022-09-01T00:53:32;6.43;;;2.83;;
17151;SDS011;8691;50.828;4.700;2022-09-01T00:55:58;6.90;;;2.70;;
17151;SDS011;8691;50.828;4.700;2022-09-01T00:58:26;5.07;;;2.80;;
17151;SDS011;8691;50.828;4.700;2022-09-01T01:00:53;4.65;;;3.10;;
17151;SDS011;8691;50.828;4.700;2022-09-01T01:03:20;5.80;;;3.40;;
17151;SDS011;8691;50.828;4.700;2022-09-01T01:05:48;5.10;;;3.08;;
17151;SDS011;8691;50.828;4.700;2022-09-01T01:08:13;4.67;;;3.00;;
17151;SDS011;8691;50.828;4.700;2022-09-01T01:10:41;3.93;;;3.00;;
17151;SDS011;8691;50.828;4.700;2022-09-01T01:13:08;4.97;;;3.08;;
17151;SDS011;8691;50.828;4.700;2022-09-01T01:15:34;4.22;;;3.10;;
17151;SDS011;8691;50.828;4.700;2022-09-01T01:18:01;7.50;;;3.10;;
17151;SDS011;8691;50.828;4.700;2022-09-01T01:20:27;5.17;;;3.10;;
17151;SDS011;8691;50.828;4.700;2022-09-01T01:23:16;5.67;;;2.73;;
17151;SDS011;8691;50.828;4.700;2022-09-01T01:25:54;7.20;;;3.57;;
17151;SDS011;8691;50.828;4.700;2022-09-01T01:28:22;5.77;;;3.07;;
17151;SDS011;8691;50.828;4.700;2022-09-01T01:30:51;5.63;;;3.10;;
17151;SDS011;8691;50.828;4.700;2022-09-01T01:33:18;4.17;;;3.07;;
17151;SDS011;8691;50.828;4.700;2022-09-01T01:35:43;9.13;;;3.30;;
17151;SDS011;8691;50.828;4.700;2022-09-01T01:38:11;4.40;;;2.97;;
17151;SDS011;8691;50.828;4.700;2022-09-01T01:40:37;6.33;;;2.97;;
17151;SDS011;8691;50.828;4.700;2022-09-01T01:43:04;4.40;;;3.10;;
17151;SDS011;8691;50.828;4.700;2022-09-01T01:45:31;5.80;;;3.00;;
17151;SDS011;8691;50.828;4.700;2022-09-01T01:47:58;3.87;;;2.60;;
17151;SDS011;8691;50.828;4.700;2022-09-01T01:50:27;5.77;;;3.53;;
17151;SDS011;8691;50.828;4.700;2022-09-01T01:52:52;6.67;;;3.77;;
17151;SDS011;8691;50.828;4.700;2022-09-01T01:55:20;5.13;;;3.67;;
17151;SDS011;8691;50.828;4.700;2022-09-01T01:57:46;6.00;;;3.70;;
17151;SDS011;8691;50.828;4.700;2022-09-01T02:00:17;5.30;;;3.70;;
17151;SDS011;8691;50.828;4.700;2022-09-01T02:02:43;7.80;;;3.77;;
17151;SDS011;8691;50.828;4.700;2022-09-01T02:05:09;8.10;;;3.77;;
17151;SDS011;8691;50.828;4.700;2022-09-01T02:07:36;8.00;;;4.80;;
17151;SDS011;8691;50.828;4.700;2022-09-01T02:10:03;7.88;;;4.70;;
17151;SDS011;8691;50.828;4.700;2022-09-01T02:12:30;6.18;;;4.38;;
17151;SDS011;8691;50.828;4.700;2022-09-01T02:14:57;9.82;;;4.80;;
17151;SDS011;8691;50.828;4.700;2022-09-01T02:17:23;7.43;;;4.37;;
17151;SDS011;8691;50.828;4.700;2022-09-01T02:19:50;9.27;;;4.73;;
17151;SDS011;8691;50.828;4.700;2022-09-01T02:22:17;5.93;;;4.43;;
17151;SDS011;8691;50.828;4.700;2022-09-01T02:24:44;8.53;;;4.60;;
17151;SDS011;8691;50.828;4.700;2022-09-01T02:27:11;6.47;;;4.43;;
17151;SDS011;8691;50.828;4.700;2022-09-01T02:29:37;7.27;;;4.90;;
17151;SDS011;8691;50.828;4.700;2022-09-01T02:32:04;8.63;;;4.70;;
17151;SDS011;8691;50.828;4.700;2022-09-01T02:34:30;6.87;;;4.67;;
17151;SDS011;8691;50.828;4.700;2022-09-01T02:36:57;8.27;;;4.50;;
17151;SDS011;8691;50.828;4.700;2022-09-01T02:39:28;9.63;;;4.97;;
17151;SDS011;8691;50.828;4.700;2022-09-01T02:41:54;7.37;;;4.30;;
17151;SDS011;8691;50.828;4.700;2022-09-01T02:44:20;6.40;;;4.73;;
17151;SDS011;8691;50.828;4.700;2022-09-01T02:46:47;8.30;;;4.90;;
17151;SDS011;8691;50.828;4.700;2022-09-01T02:49:15;8.03;;;4.33;;
17151;SDS011;8691;50.828;4.700;2022-09-01T02:51:44;6.07;;;4.63;;
17151;SDS011;8691;50.828;4.700;2022-09-01T02:54:10;7.97;;;4.87;;
17151;SDS011;8691;50.828;4.700;2022-09-01T02:56:36;5.90;;;4.80;;
17151;SDS011;8691;50.828;4.700;2022-09-01T02:59:03;6.73;;;4.60;;
17151;SDS011;8691;50.828;4.700;2022-09-01T03:01:30;9.30;;;4.30;;
17151;SDS011;8691;50.828;4.700;2022-09-01T03:03:58;6.20;;;4.40;;
17151;SDS011;8691;50.828;4.700;2022-09-01T03:06:23;7.87;;;4.17;;
17151;SDS011;8691;50.828;4.700;2022-09-01T03:08:50;6.33;;;4.57;;
17151;SDS011;8691;50.828;4.700;2022-09-01T03:11:19;8.20;;;4.20;;
17151;SDS011;8691;50.828;4.700;2022-09-01T03:13:46;8.47;;;4.90;;
17151;SDS011;8691;50.828;4.700;2022-09-01T03:16:12;7.28;;;4.62;;
17151;SDS011;8691;50.828;4.700;2022-09-01T03:18:39;7.30;;;5.10;;
17151;SDS011;8691;50.828;4.700;2022-09-01T03:21:06;7.90;;;4.17;;
17151;SDS011;8691;50.828;4.700;2022-09-01T03:23:33;5.57;;;4.20;;
17151;SDS011;8691;50.828;4.700;2022-09-01T03:26:00;6.77;;;4.20;;
17151;SDS011;8691;50.828;4.700;2022-09-01T03:28:27;7.33;;;4.60;;
17151;SDS011;8691;50.828;4.700;2022-09-01T03:30:55;5.87;;;3.70;;
17151;SDS011;8691;50.828;4.700;2022-09-01T03:33:21;8.33;;;4.60;;
17151;SDS011;8691;50.828;4.700;2022-09-01T03:35:47;8.27;;;4.50;;
17151;SDS011;8691;50.828;4.700;2022-09-01T03:38:14;7.03;;;4.40;;
17151;SDS011;8691;50.828;4.700;2022-09-01T03:40:43;7.65;;;4.50;;
17151;SDS011;8691;50.828;4.700;2022-09-01T03:43:10;7.60;;;4.00;;
17151;SDS011;8691;50.828;4.700;2022-09-01T03:45:37;6.80;;;4.27;;
17151;SDS011;8691;50.828;4.700;2022-09-01T03:48:04;6.53;;;4.00;;
17151;SDS011;8691;50.828;4.700;2022-09-01T03:50:37;6.33;;;4.00;;
17151;SDS011;8691;50.828;4.700;2022-09-01T03:53:03;5.50;;;4.27;;
17151;SDS011;8691;50.828;4.700;2022-09-01T03:55:31;8.43;;;4.13;;
17151;SDS011;8691;50.828;4.700;2022-09-01T03:58:00;8.67;;;3.93;;
17151;SDS011;8691;50.828;4.700;2022-09-01T04:00:24;5.03;;;4.17;;
17151;SDS011;8691;50.828;4.700;2022-09-01T04:02:51;7.03;;;4.10;;
17151;SDS011;8691;50.828;4.700;2022-09-01T04:05:17;6.00;;;4.18;;
17151;SDS011;8691;50.828;4.700;2022-09-01T04:07:43;6.62;;;4.12;;
17151;SDS011;8691;50.828;4.700;2022-09-01T04:10:10;4.97;;;3.77;;
17151;SDS011;8691;50.828;4.700;2022-09-01T04:12:37;11.23;;;5.40;;
17151;SDS011;8691;50.828;4.700;2022-09-01T04:15:03;4.47;;;3.70;;
17151;SDS011;8691;50.828;4.700;2022-09-01T04:17:30;5.37;;;3.80;;
17151;SDS011;8691;50.828;4.700;2022-09-01T04:20:14;8.07;;;3.27;;
17151;SDS011;8691;50.828;4.700;2022-09-01T04:22:41;7.87;;;4.00;;
17151;SDS011;8691;50.828;4.700;2022-09-01T04:25:08;4.67;;;3.23;;
17151;SDS011;8691;50.828;4.700;2022-09-01T04:27:34;6.33;;;3.87;;
17151;SDS011;8691;50.828;4.700;2022-09-01T04:30:01;7.37;;;3.73;;
17151;SDS011;8691;50.828;4.700;2022-09-01T04:32:28;5.37;;;3.60;;
17151;SDS011;8691;50.828;4.700;2022-09-01T04:34:55;4.80;;;3.40;;
17151;SDS011;8691;50.828;4.700;2022-09-01T04:37:22;4.77;;;3.77;;
17151;SDS011;8691;50.828;4.700;2022-09-01T04:39:50;6.93;;;3.93;;
17151;SDS011;8691;50.828;4.700;2022-09-01T04:42:16;7.23;;;3.47;;
17151;SDS011;8691;50.828;4.700;2022-09-01T04:44:42;3.90;;;3.50;;
17151;SDS011;8691;50.828;4.700;2022-09-01T04:47:09;8.27;;;3.70;;
17151;SDS011;8691;50.828;4.700;2022-09-01T04:49:36;5.70;;;3.70;;
17151;SDS011;8691;50.828;4.700;2022-09-01T04:52:02;7.10;;;3.70;;
17151;SDS011;8691;50.828;4.700;2022-09-01T04:54:29;4.00;;;3.60;;
17151;SDS011;8691;50.828;4.700;2022-09-01T04:56:56;6.70;;;3.77;;
17151;SDS011;8691;50.828;4.700;2022-09-01T04:59:23;7.37;;;3.50;;
17151;SDS011;8691;50.828;4.700;2022-09-01T05:01:50;7.03;;;3.67;;
17151;SDS011;8691;50.828;4.700;2022-09-01T05:04:19;4.30;;;2.90;;
17151;SDS011;8691;50.828;4.700;2022-09-01T05:06:45;5.60;;;3.50;;
17151;SDS011;8691;50.828;4.700;2022-09-01T05:09:12;5.90;;;3.90;;
17151;SDS011;8691;50.828;4.700;2022-09-01T05:11:39;11.07;;;3.73;;
17151;SDS011;8691;50.828;4.700;2022-09-01T05:14:05;5.93;;;3.27;;
17151;SDS011;8691;50.828;4.700;2022-09-01T05:16:33;5.13;;;3.30;;
17151;SDS011;8691;50.828;4.700;2022-09-01T05:19:00;9.47;;;3.40;;
17151;SDS011;8691;50.828;4.700;2022-09-01T05:21:27;8.07;;;3.57;;
17151;SDS011;8691;50.828;4.700;2022-09-01T05:23:54;3.93;;;3.50;;
17151;SDS011;8691;50.828;4.700;2022-09-01T05:26:21;4.27;;;3.43;;
17151;SDS011;8691;50.828;4.700;2022-09-01T05:28:48;4.60;;;3.27;;
17151;SDS011;8691;50.828;4.700;2022-09-01T05:31:14;5.00;;;3.13;;
17151;SDS011;8691;50.828;4.700;2022-09-01T05:33:41;6.97;;;3.37;;
17151;SDS011;8691;50.828;4.700;2022-09-01T05:36:08;5.33;;;2.90;;
17151;SDS011;8691;50.828;4.700;2022-09-01T05:38:35;6.10;;;2.97;;
17151;SDS011;8691;50.828;4.700;2022-09-01T05:41:02;7.67;;;3.53;;
17151;SDS011;8691;50.828;4.700;2022-09-01T05:43:30;4.13;;;3.30;;
17151;SDS011;8691;50.828;4.700;2022-09-01T05:45:56;5.77;;;3.00;;
17151;SDS011;8691;50.828;4.700;2022-09-01T05:48:23;3.67;;;2.73;;
17151;SDS011;8691;50.828;4.700;2022-09-01T05:50:50;5.97;;;3.03;;
17151;SDS011;8691;50.828;4.700;2022-09-01T05:53:17;6.30;;;3.03;;
17151;SDS011;8691;50.828;4.700;2022-09-01T05:55:43;5.37;;;2.83;;
17151;SDS011;8691;50.828;4.700;2022-09-01T05:58:10;4.90;;;2.47;;
17151;SDS011;8691;50.828;4.700;2022-09-01T06:00:36;4.77;;;2.40;;
17151;SDS011;8691;50.828;4.700;2022-09-01T06:03:04;4.30;;;2.47;;
17151;SDS011;8691;50.828;4.700;2022-09-01T06:05:32;2.77;;;2.20;;
17151;SDS011;8691;50.828;4.700;2022-09-01T06:07:58;7.13;;;2.57;;
17151;SDS011;8691;50.828;4.700;2022-09-01T06:10:24;4.40;;;2.40;;
17151;SDS011;8691;50.828;4.700;2022-09-01T06:12:52;5.73;;;2.20;;
17151;SDS011;8691;50.828;4.700;2022-09-01T06:15:18;4.63;;;2.20;;
17151;SDS011;8691;50.828;4.700;2022-09-01T06:17:46;3.27;;;1.80;;
17151;SDS011;8691;50.828;4.700;2022-09-01T06:20:12;4.27;;;2.40;;
17151;SDS011;8691;50.828;4.700;2022-09-01T06:22:40;5.63;;;2.50;;
17151;SDS011;8691;50.828;4.700;2022-09-01T06:25:06;5.20;;;2.40;;
17151;SDS011;8691;50.828;4.700;2022-09-01T06:27:33;4.00;;;2.33;;
17151;SDS011;8691;50.828;4.700;2022-09-01T06:30:00;4.93;;;2.10;;
17151;SDS011;8691;50.828;4.700;2022-09-01T06:32:27;5.53;;;2.40;;
17151;SDS011;8691;50.828;4.700;2022-09-01T06:34:54;4.28;;;2.33;;
17151;SDS011;8691;50.828;4.700;2022-09-01T06:37:21;3.65;;;2.53;;
17151;SDS011;8691;50.828;4.700;2022-09-01T06:39:48;4.12;;;2.50;;
17151;SDS011;8691;50.828;4.700;2022-09-01T06:42:15;3.53;;;2.60;;
17151;SDS011;8691;50.828;4.700;2022-09-01T06:44:42;4.30;;;2.50;;
17151;SDS011;8691;50.828;4.700;2022-09-01T06:47:09;3.97;;;2.40;;
17151;SDS011;8691;50.828;4.700;2022-09-01T06:49:36;9.48;;;2.70;;
17151;SDS011;8691;50.828;4.700;2022-09-01T06:52:03;4.00;;;2.60;;
17151;SDS011;8691;50.828;4.700;2022-09-01T06:54:31;4.45;;;2.70;;
17151;SDS011;8691;50.828;4.700;2022-09-01T06:56:57;4.67;;;3.00;;
17151;SDS011;8691;50.828;4.700;2022-09-01T06:59:26;4.30;;;3.10;;
17151;SDS011;8691;50.828;4.700;2022-09-01T07:01:51;4.10;;;2.83;;
17151;SDS011;8691;50.828;4.700;2022-09-01T07:04:19;3.08;;;2.88;;
17151;SDS011;8691;50.828;4.700;2022-09-01T07:06:46;5.43;;;2.85;;
17151;SDS011;8691;50.828;4.700;2022-09-01T07:09:13;4.50;;;2.67;;
17151;SDS011;8691;50.828;4.700;2022-09-01T07:11:41;5.73;;;3.30;;
17151;SDS011;8691;50.828;4.700;2022-09-01T07:14:08;3.60;;;2.60;;
17151;SDS011;8691;50.828;4.700;2022-09-01T07:16:36;3.62;;;2.60;;
17151;SDS011;8691;50.828;4.700;2022-09-01T07:19:03;5.15;;;2.58;;
17151;SDS011;8691;50.828;4.700;2022-09-01T07:21:30;4.35;;;2.40;;
17151;SDS011;8691;50.828;4.700;2022-09-01T07:23:58;3.00;;;2.60;;
17151;SDS011;8691;50.828;4.700;2022-09-01T07:26:24;5.87;;;2.63;;
17151;SDS011;8691;50.828;4.700;2022-09-01T07:28:51;4.78;;;2.67;;
17151;SDS011;8691;50.828;4.700;2022-09-01T07:31:19;4.00;;;2.50;;
17151;SDS011;8691;50.828;4.700;2022-09-01T07:33:46;4.60;;;2.50;;
17151;SDS011;8691;50.828;4.700;2022-09-01T07:36:12;3.57;;;2.70;;
17151;SDS011;8691;50.828;4.700;2022-09-01T07:38:40;4.18;;;2.45;;
17151;SDS011;8691;50.828;4.700;2022-09-01T07:41:08;5.93;;;2.90;;
17151;SDS011;8691;50.828;4.700;2022-09-01T07:43:34;5.25;;;2.83;;
17151;SDS011;8691;50.828;4.700;2022-09-01T07:46:02;5.95;;;2.60;;
17151;SDS011;8691;50.828;4.700;2022-09-01T07:48:28;5.93;;;2.30;;
17151;SDS011;8691;50.828;4.700;2022-09-01T07:50:55;4.12;;;2.50;;
17151;SDS011;8691;50.828;4.700;2022-09-01T07:53:23;2.88;;;2.28;;
17151;SDS011;8691;50.828;4.700;2022-09-01T07:55:51;5.78;;;2.28;;
17151;SDS011;8691;50.828;4.700;2022-09-01T07:58:20;3.37;;;2.17;;
17151;SDS011;8691;50.828;4.700;2022-09-01T08:00:46;3.00;;;2.20;;
17151;SDS011;8691;50.828;4.700;2022-09-01T08:03:13;2.90;;;2.10;;
17151;SDS011;8691;50.828;4.700;2022-09-01T08:05:41;3.72;;;2.08;;
17151;SDS011;8691;50.828;4.700;2022-09-01T08:08:08;3.47;;;2.15;;
17151;SDS011;8691;50.828;4.700;2022-09-01T08:10:41;4.25;;;2.72;;
17151;SDS011;8691;50.828;4.700;2022-09-01T08:13:05;3.95;;;2.10;;
17151;SDS011;8691;50.828;4.700;2022-09-01T08:15:32;3.30;;;2.00;;
17151;SDS011;8691;50.828;4.700;2022-09-01T08:18:00;2.65;;;1.98;;
17151;SDS011;8691;50.828;4.700;2022-09-01T08:20:27;2.80;;;1.73;;
17151;SDS011;8691;50.828;4.700;2022-09-01T08:22:54;3.35;;;1.88;;
17151;SDS011;8691;50.828;4.700;2022-09-01T08:25:21;2.93;;;2.10;;
17151;SDS011;8691;50.828;4.700;2022-09-01T08:27:48;3.50;;;1.90;;
17151;SDS011;8691;50.828;4.700;2022-09-01T08:30:15;2.05;;;1.85;;
17151;SDS011;8691;50.828;4.700;2022-09-01T08:32:42;2.88;;;1.67;;
17151;SDS011;8691;50.828;4.700;2022-09-01T08:35:10;3.10;;;1.80;;
17151;SDS011;8691;50.828;4.700;2022-09-01T08:37:36;2.50;;;1.75;;
17151;SDS011;8691;50.828;4.700;2022-09-01T08:40:03;3.67;;;1.63;;
17151;SDS011;8691;50.828;4.700;2022-09-01T08:47:33;4.20;;;1.70;;
17151;SDS011;8691;50.828;4.700;2022-09-01T08:50:00;2.50;;;1.70;;
17151;SDS011;8691;50.828;4.700;2022-09-01T08:52:30;3.50;;;1.85;;
17151;SDS011;8691;50.828;4.700;2022-09-01T08:55:02;3.50;;;1.80;;
17151;SDS011;8691;50.828;4.700;2022-09-01T08:57:38;2.12;;;1.58;;
17151;SDS011;8691;50.828;4.700;2022-09-01T09:00:07;3.53;;;1.80;;
17151;SDS011;8691;50.828;4.700;2022-09-01T09:08:09;4.60;;;1.50;;
17151;SDS011;8691;50.828;4.700;2022-09-01T09:10:37;3.47;;;1.50;;
17151;SDS011;8691;50.828;4.700;2022-09-01T09:15:39;2.30;;;1.20;;
17151;SDS011;8691;50.828;4.700;2022-09-01T09:20:51;5.32;;;1.42;;
17151;SDS011;8691;50.828;4.700;2022-09-01T09:23:24;2.25;;;1.38;;
17151;SDS011;8691;50.828;4.700;2022-09-01T09:25:54;3.70;;;1.58;;
17151;SDS011;8691;50.828;4.700;2022-09-01T09:28:21;2.27;;;1.30;;
17151;SDS011;8691;50.828;4.700;2022-09-01T09:30:48;1.45;;;1.23;;
17151;SDS011;8691;50.828;4.700;2022-09-01T09:33:37;1.85;;;1.17;;
17151;SDS011;8691;50.828;4.700;2022-09-01T09:35:54;1.90;;;1.30;;
17151;SDS011;8691;50.828;4.700;2022-09-01T09:38:22;2.60;;;1.20;;
17151;SDS011;8691;50.828;4.700;2022-09-01T09:41:04;1.42;;;1.20;;
17151;SDS011;8691;50.828;4.700;2022-09-01T09:43:31;1.55;;;1.10;;
17151;SDS011;8691;50.828;4.700;2022-09-01T09:46:23;1.77;;;1.08;;
17151;SDS011;8691;50.828;4.700;2022-09-01T09:48:45;2.53;;;1.20;;
17151;SDS011;8691;50.828;4.700;2022-09-01T09:51:15;1.60;;;1.10;;
17151;SDS011;8691;50.828;4.700;2022-09-01T09:53:41;1.60;;;1.05;;
17151;SDS011;8691;50.828;4.700;2022-09-01T09:56:15;3.63;;;1.10;;
17151;SDS011;8691;50.828;4.700;2022-09-01T09:58:37;1.30;;;1.10;;
17151;SDS011;8691;50.828;4.700;2022-09-01T10:01:06;2.67;;;1.30;;
17151;SDS011;8691;50.828;4.700;2022-09-01T10:03:44;1.92;;;1.30;;
17151;SDS011;8691;50.828;4.700;2022-09-01T10:06:12;3.33;;;1.10;;
17151;SDS011;8691;50.828;4.700;2022-09-01T10:08:39;1.80;;;1.17;;
17151;SDS011;8691;50.828;4.700;2022-09-01T10:11:05;1.30;;;0.93;;
17151;SDS011;8691;50.828;4.700;2022-09-01T10:13:32;2.10;;;0.80;;
17151;SDS011;8691;50.828;4.700;2022-09-01T10:16:01;2.72;;;1.27;;
17151;SDS011;8691;50.828;4.700;2022-09-01T10:18:30;2.00;;;1.00;;
17151;SDS011;8691;50.828;4.700;2022-09-01T10:20:57;1.77;;;1.00;;
17151;SDS011;8691;50.828;4.700;2022-09-01T10:23:24;4.40;;;1.30;;
17151;SDS011;8691;50.828;4.700;2022-09-01T10:25:51;1.17;;;0.98;;
17151;SDS011;8691;50.828;4.700;2022-09-01T10:28:20;2.25;;;1.00;;
17151;SDS011;8691;50.828;4.700;2022-09-01T10:30:46;2.33;;;1.20;;
17151;SDS011;8691;50.828;4.700;2022-09-01T10:33:14;2.22;;;1.00;;
17151;SDS011;8691;50.828;4.700;2022-09-01T10:35:42;3.10;;;1.00;;
17151;SDS011;8691;50.828;4.700;2022-09-01T10:38:14;2.33;;;0.90;;
17151;SDS011;8691;50.828;4.700;2022-09-01T10:40:37;4.38;;;0.88;;
17151;SDS011;8691;50.828;4.700;2022-09-01T10:45:54;1.67;;;1.13;;
17151;SDS011;8691;50.828;4.700;2022-09-01T10:48:29;5.43;;;1.50;;
17151;SDS011;8691;50.828;4.700;2022-09-01T10:51:39;1.75;;;1.10;;
17151;SDS011;8691;50.828;4.700;2022-09-01T10:53:40;3.30;;;1.00;;
17151;SDS011;8691;50.828;4.700;2022-09-01T10:56:23;1.23;;;1.10;;
17151;SDS011;8691;50.828;4.700;2022-09-01T11:04:12;1.50;;;1.10;;
17151;SDS011;8691;50.828;4.700;2022-09-01T11:11:53;1.70;;;1.20;;
17151;SDS011;8691;50.828;4.700;2022-09-01T11:14:23;3.65;;;1.40;;
17151;SDS011;8691;50.828;4.700;2022-09-01T11:17:29;1.57;;;1.10;;
17151;SDS011;8691;50.828;4.700;2022-09-01T11:19:42;1.60;;;1.20;;
17151;SDS011;8691;50.828;4.700;2022-09-01T11:24:55;4.32;;;1.30;;
17151;SDS011;8691;50.828;4.700;2022-09-01T11:30:15;2.83;;;1.20;;
17151;SDS011;8691;50.828;4.700;2022-09-01T11:32:41;2.78;;;1.23;;
17151;SDS011;8691;50.828;4.700;2022-09-01T11:35:21;1.77;;;1.20;;
17151;SDS011;8691;50.828;4.700;2022-09-01T11:37:47;3.55;;;1.48;;
17151;SDS011;8691;50.828;4.700;2022-09-01T11:40:18;2.90;;;1.50;;
17151;SDS011;8691;50.828;4.700;2022-09-01T11:42:41;2.35;;;1.10;;
17151;SDS011;8691;50.828;4.700;2022-09-01T11:45:20;2.33;;;1.20;;
17151;SDS011;8691;50.828;4.700;2022-09-01T11:47:50;2.07;;;1.30;;
17151;SDS011;8691;50.828;4.700;2022-09-01T11:50:21;1.80;;;1.30;;
17151;SDS011;8691;50.828;4.700;2022-09-01T11:55:30;1.60;;;1.20;;
17151;SDS011;8691;50.828;4.700;2022-09-01T11:57:58;4.03;;;1.30;;
17151;SDS011;8691;50.828;4.700;2022-09-01T12:00:27;1.97;;;1.20;;
17151;SDS011;8691;50.828;4.700;2022-09-01T12:02:55;1.57;;;1.30;;
17151;SDS011;8691;50.828;4.700;2022-09-01T12:05:23;2.05;;;1.40;;
17151;SDS011;8691;50.828;4.700;2022-09-01T12:07:49;1.80;;;1.40;;
17151;SDS011;8691;50.828;4.700;2022-09-01T12:13:02;1.73;;;1.23;;
17151;SDS011;8691;50.828;4.700;2022-09-01T12:15:25;2.70;;;1.35;;
17151;SDS011;8691;50.828;4.700;2022-09-01T12:17:52;4.00;;;1.13;;
17151;SDS011;8691;50.828;4.700;2022-09-01T12:20:29;3.33;;;1.40;;
17151;SDS011;8691;50.828;4.700;2022-09-01T12:22:56;2.50;;;1.33;;
17151;SDS011;8691;50.828;4.700;2022-09-01T12:25:27;2.87;;;1.50;;
17151;SDS011;8691;50.828;4.700;2022-09-01T12:27:52;3.25;;;1.60;;
17151;SDS011;8691;50.828;4.700;2022-09-01T12:30:19;2.03;;;1.35;;
17151;SDS011;8691;50.828;4.700;2022-09-01T12:32:46;2.13;;;1.40;;
17151;SDS011;8691;50.828;4.700;2022-09-01T12:35:15;2.42;;;1.38;;
17151;SDS011;8691;50.828;4.700;2022-09-01T12:37:40;2.43;;;1.40;;
17151;SDS011;8691;50.828;4.700;2022-09-01T12:40:16;2.97;;;1.40;;
17151;SDS011;8691;50.828;4.700;2022-09-01T12:42:34;3.08;;;1.40;;
17151;SDS011;8691;50.828;4.700;2022-09-01T12:45:05;2.62;;;1.40;;
17151;SDS011;8691;50.828;4.700;2022-09-01T12:50:05;2.17;;;1.30;;
17151;SDS011;8691;50.828;4.700;2022-09-01T12:52:32;2.30;;;1.30;;
17151;SDS011;8691;50.828;4.700;2022-09-01T13:02:45;2.47;;;1.50;;
17151;SDS011;8691;50.828;4.700;2022-09-01T13:08:09;2.87;;;1.50;;
17151;SDS011;8691;50.828;4.700;2022-09-01T13:10:33;3.08;;;1.38;;
17151;SDS011;8691;50.828;4.700;2022-09-01T13:12:59;2.28;;;1.30;;
17151;SDS011;8691;50.828;4.700;2022-09-01T13:15:25;1.43;;;1.30;;
17151;SDS011;8691;50.828;4.700;2022-09-01T13:17:52;1.88;;;1.25;;
17151;SDS011;8691;50.828;4.700;2022-09-01T13:20:19;3.47;;;1.38;;
17151;SDS011;8691;50.828;4.700;2022-09-01T13:22:46;1.90;;;1.50;;
17151;SDS011;8691;50.828;4.700;2022-09-01T13:25:14;3.63;;;1.30;;
17151;SDS011;8691;50.828;4.700;2022-09-01T13:27:40;2.27;;;1.30;;
17151;SDS011;8691;50.828;4.700;2022-09-01T13:30:07;3.95;;;1.30;;
17151;SDS011;8691;50.828;4.700;2022-09-01T13:32:34;2.27;;;1.30;;
17151;SDS011;8691;50.828;4.700;2022-09-01T13:35:01;2.85;;;1.30;;
17151;SDS011;8691;50.828;4.700;2022-09-01T13:37:27;3.08;;;1.30;;
17151;SDS011;8691;50.828;4.700;2022-09-01T13:39:54;4.23;;;1.63;;
17151;SDS011;8691;50.828;4.700;2022-09-01T13:42:21;1.38;;;1.08;;
17151;SDS011;8691;50.828;4.700;2022-09-01T13:44:48;2.42;;;1.40;;
17151;SDS011;8691;50.828;4.700;2022-09-01T13:47:15;1.73;;;1.20;;
17151;SDS011;8691;50.828;4.700;2022-09-01T13:49:42;2.45;;;1.20;;
17151;SDS011;8691;50.828;4.700;2022-09-01T13:52:09;2.05;;;1.25;;
17151;SDS011;8691;50.828;4.700;2022-09-01T13:54:36;3.17;;;1.20;;
17151;SDS011;8691;50.828;4.700;2022-09-01T13:57:03;1.90;;;1.20;;
17151;SDS011;8691;50.828;4.700;2022-09-01T13:59:30;1.45;;;1.10;;
17151;SDS011;8691;50.828;4.700;2022-09-01T14:01:57;4.00;;;1.20;;
17151;SDS011;8691;50.828;4.700;2022-09-01T14:04:24;1.70;;;1.17;;
17151;SDS011;8691;50.828;4.700;2022-09-01T14:06:51;3.60;;;1.25;;
17151;SDS011;8691;50.828;4.700;2022-09-01T14:09:19;2.43;;;1.10;;
17151;SDS011;8691;50.828;4.700;2022-09-01T14:11:45;1.45;;;1.10;;
17151;SDS011;8691;50.828;4.700;2022-09-01T14:14:13;2.17;;;1.20;;
17151;SDS011;8691;50.828;4.700;2022-09-01T14:16:41;1.83;;;1.23;;
17151;SDS011;8691;50.828;4.700;2022-09-01T14:19:09;1.27;;;0.90;;
17151;SDS011;8691;50.828;4.700;2022-09-01T14:21:35;4.43;;;1.17;;
17151;SDS011;8691;50.828;4.700;2022-09-01T14:24:02;1.08;;;1.00;;
17151;SDS011;8691;50.828;4.700;2022-09-01T14:26:28;3.47;;;1.12;;
17151;SDS011;8691;50.828;4.700;2022-09-01T14:28:56;2.60;;;1.10;;
17151;SDS011;8691;50.828;4.700;2022-09-01T14:31:22;2.00;;;1.10;;
17151;SDS011;8691;50.828;4.700;2022-09-01T14:33:49;2.07;;;1.30;;
17151;SDS011;8691;50.828;4.700;2022-09-01T14:36:23;2.83;;;1.10;;
17151;SDS011;8691;50.828;4.700;2022-09-01T14:38:50;1.85;;;1.12;;
17151;SDS011;8691;50.828;4.700;2022-09-01T14:41:18;1.50;;;1.10;;
17151;SDS011;8691;50.828;4.700;2022-09-01T14:43:44;2.40;;;1.20;;
17151;SDS011;8691;50.828;4.700;2022-09-01T14:46:11;1.73;;;1.27;;
17151;SDS011;8691;50.828;4.700;2022-09-01T14:48:39;2.65;;;1.20;;
17151;SDS011;8691;50.828;4.700;2022-09-01T14:51:06;2.10;;;1.20;;
17151;SDS011;8691;50.828;4.700;2022-09-01T14:53:33;1.20;;;1.10;;
17151;SDS011;8691;50.828;4.700;2022-09-01T14:56:00;3.00;;;1.20;;
17151;SDS011;8691;50.828;4.700;2022-09-01T14:58:27;1.30;;;1.17;;
17151;SDS011;8691;50.828;4.700;2022-09-01T15:00:54;2.30;;;1.30;;
17151;SDS011;8691;50.828;4.700;2022-09-01T15:03:21;2.55;;;1.30;;
17151;SDS011;8691;50.828;4.700;2022-09-01T15:05:47;2.30;;;1.30;;
17151;SDS011;8691;50.828;4.700;2022-09-01T15:08:14;3.12;;;1.40;;
17151;SDS011;8691;50.828;4.700;2022-09-01T15:10:41;1.92;;;1.15;;
17151;SDS011;8691;50.828;4.700;2022-09-01T15:13:08;3.17;;;1.30;;
17151;SDS011;8691;50.828;4.700;2022-09-01T15:15:36;3.40;;;1.15;;
17151;SDS011;8691;50.828;4.700;2022-09-01T15:18:02;3.80;;;1.05;;
17151;SDS011;8691;50.828;4.700;2022-09-01T15:20:29;1.55;;;1.10;;
17151;SDS011;8691;50.828;4.700;2022-09-01T15:23:12;2.28;;;1.10;;
17151;SDS011;8691;50.828;4.700;2022-09-01T15:25:45;1.95;;;1.20;;
17151;SDS011;8691;50.828;4.700;2022-09-01T15:28:11;2.70;;;1.05;;
17151;SDS011;8691;50.828;4.700;2022-09-01T15:30:39;3.88;;;1.20;;
17151;SDS011;8691;50.828;4.700;2022-09-01T15:33:06;1.97;;;1.00;;
17151;SDS011;8691;50.828;4.700;2022-09-01T15:35:33;1.70;;;1.12;;
17151;SDS011;8691;50.828;4.700;2022-09-01T15:38:00;2.70;;;1.20;;
17151;SDS011;8691;50.828;4.700;2022-09-01T15:40:27;2.80;;;1.10;;
17151;SDS011;8691;50.828;4.700;2022-09-01T15:42:54;1.80;;;0.98;;
17151;SDS011;8691;50.828;4.700;2022-09-01T15:45:21;1.93;;;1.10;;
17151;SDS011;8691;50.828;4.700;2022-09-01T15:47:48;1.77;;;1.00;;
17151;SDS011;8691;50.828;4.700;2022-09-01T15:50:19;1.65;;;1.10;;
17151;SDS011;8691;50.828;4.700;2022-09-01T15:52:56;3.53;;;1.17;;
17151;SDS011;8691;50.828;4.700;2022-09-01T15:55:26;1.50;;;1.17;;
17151;SDS011;8691;50.828;4.700;2022-09-01T15:57:49;2.40;;;1.27;;
17151;SDS011;8691;50.828;4.700;2022-09-01T16:00:16;2.35;;;1.20;;